Time;durP1;ratioP1;P1;durP2;ratioP2;P2;SDS_P1;SDS_P2;PMS_P1;PMS_P2;Temp;Humidity;BMP_temperature;BMP_pressure;BME280_temperature;BME280_humidity;BME280_pressure;Samples;Min_cycle;Max_cycle;Signal;HPM_P1;HPM_P2
2021/03/11 00:01:07;;;;;;;11.48;10.27;;;;;;;;;;10480416;27;20404;-63
2021/03/11 00:06:05;;;;;;;11.27;10.13;;;;;;;;;;10443694;27;20085;-63
2021/03/11 00:11:03;;;;;;;12.60;10.60;;;;;;;;;;10484571;27;20407;-63
2021/03/11 00:16:02;;;;;;;12.73;10.80;;;;;;;;;;10484172;27;20095;-63
2021/03/11 00:20:59;;;;;;;11.95;10.75;;;;;;;;;;10478570;27;20043;-63
2021/03/11 00:26:03;;;;;;;12.30;11.02;;;;;;;;;;10442614;27;20074;-63
2021/03/11 00:31:00;;;;;;;13.48;11.68;;;;;;;;;;10442914;27;20039;-63
2021/03/11 00:35:58;;;;;;;12.95;11.48;;;;;;;;;;10442695;27;20518;-63
2021/03/11 00:40:55;;;;;;;16.02;14.32;;;;;;;;;;10441597;27;20098;-63
2021/03/11 00:45:53;;;;;;;16.75;12.73;;;;;;;;;;10442082;27;20078;-63
2021/03/11 00:50:50;;;;;;;32.25;21.77;;;;;;;;;;10441114;27;20071;-63
2021/03/11 00:55:49;;;;;;;34.17;21.63;;;;;;;;;;10435405;27;20047;-63
2021/03/11 01:00:47;;;;;;;32.50;20.83;;;;;;;;;;10475133;27;20051;-63
2021/03/11 01:05:56;;;;;;;20.90;16.83;;;;;;;;;;10460553;27;20522;-63
2021/03/11 01:11:07;;;;;;;19.90;14.70;;;;;;;;;;10453034;27;20407;-63
2021/03/11 01:16:06;;;;;;;18.20;14.68;;;;;;;;;;10482438;27;20074;-63
2021/03/11 01:21:04;;;;;;;22.20;16.10;;;;;;;;;;10454573;27;20050;-63
2021/03/11 01:26:01;;;;;;;18.77;15.20;;;;;;;;;;10439931;27;20101;-63
2021/03/11 01:31:00;;;;;;;20.23;16.13;;;;;;;;;;10448680;27;20043;-63
2021/03/11 01:35:57;;;;;;;20.25;16.58;;;;;;;;;;10482932;27;20070;-63
2021/03/11 01:40:54;;;;;;;23.67;19.48;;;;;;;;;;10482152;27;20522;-63
2021/03/11 01:45:52;;;;;;;26.08;17.80;;;;;;;;;;10481629;27;20097;-63
2021/03/11 01:50:50;;;;;;;39.67;23.83;;;;;;;;;;10482696;27;20041;-62
2021/03/11 01:55:48;;;;;;;25.52;19.05;;;;;;;;;;10472592;27;20071;-63
2021/03/11 02:00:45;;;;;;;26.25;17.17;;;;;;;;;;10446575;27;20065;-63
2021/03/11 02:05:43;;;;;;;37.35;20.42;;;;;;;;;;10457014;27;20498;-63
2021/03/11 02:10:41;;;;;;;32.53;19.40;;;;;;;;;;10459407;27;20508;-63
2021/03/11 02:15:41;;;;;;;21.25;16.45;;;;;;;;;;10444955;27;20074;-63
2021/03/11 02:20:42;;;;;;;34.03;19.08;;;;;;;;;;10447489;27;20047;-63
2021/03/11 02:25:44;;;;;;;40.95;24.17;;;;;;;;;;10478181;27;20054;-63
2021/03/11 02:30:43;;;;;;;29.13;19.27;;;;;;;;;;10489823;27;20051;-63
2021/03/11 02:35:42;;;;;;;37.40;22.00;;;;;;;;;;10488996;27;20105;-63
2021/03/11 02:40:40;;;;;;;30.08;17.30;;;;;;;;;;10487898;27;20089;-63
2021/03/11 02:45:37;;;;;;;20.50;15.68;;;;;;;;;;10489058;27;20601;-64
2021/03/11 02:50:36;;;;;;;20.55;15.85;;;;;;;;;;10488987;27;20038;-63
2021/03/11 02:55:35;;;;;;;34.95;20.70;;;;;;;;;;10488818;27;20048;-64
2021/03/11 03:00:33;;;;;;;26.60;16.15;;;;;;;;;;10476543;27;20066;-62
2021/03/11 03:05:31;;;;;;;23.60;15.77;;;;;;;;;;10457712;27;20051;-63
2021/03/11 03:10:30;;;;;;;23.70;17.00;;;;;;;;;;10462156;27;20078;-63
2021/03/11 03:15:28;;;;;;;25.02;17.75;;;;;;;;;;10450037;27;20094;-63
2021/03/11 03:20:26;;;;;;;42.10;23.48;;;;;;;;;;10426722;27;20074;-63
2021/03/11 03:25:24;;;;;;;32.92;20.77;;;;;;;;;;10482408;27;20372;-63
2021/03/11 03:30:24;;;;;;;30.23;19.30;;;;;;;;;;10484022;27;20074;-63
2021/03/11 03:35:22;;;;;;;23.98;14.70;;;;;;;;;;10471102;27;20074;-63
2021/03/11 03:40:21;;;;;;;19.88;16.23;;;;;;;;;;10444573;27;20424;-63
2021/03/11 03:45:21;;;;;;;22.50;15.52;;;;;;;;;;10444329;27;20074;-63
2021/03/11 03:50:19;;;;;;;20.05;15.82;;;;;;;;;;10443954;27;20492;-63
2021/03/11 03:55:18;;;;;;;19.92;15.68;;;;;;;;;;10443699;27;20301;-63
2021/03/11 04:00:16;;;;;;;22.88;15.70;;;;;;;;;;10444845;27;20050;-63
2021/03/11 04:05:14;;;;;;;22.73;16.95;;;;;;;;;;10483972;27;20046;-63
2021/03/11 04:10:14;;;;;;;23.55;17.35;;;;;;;;;;10448210;27;20047;-63
2021/03/11 04:15:13;;;;;;;27.60;16.23;;;;;;;;;;10457560;27;20208;-64
2021/03/11 04:20:10;;;;;;;19.50;16.20;;;;;;;;;;10476030;27;20039;-62
2021/03/11 04:25:08;;;;;;;22.98;15.82;;;;;;;;;;10484338;27;20097;-63
2021/03/11 04:30:08;;;;;;;19.00;16.10;;;;;;;;;;10484863;27;20054;-63
2021/03/11 04:35:07;;;;;;;27.45;20.98;;;;;;;;;;10483752;27;20522;-63
2021/03/11 04:40:05;;;;;;;24.30;17.27;;;;;;;;;;10484044;27;20046;-62
2021/03/11 04:45:03;;;;;;;20.92;17.08;;;;;;;;;;10483928;27;20480;-63
2021/03/11 04:50:01;;;;;;;25.35;18.30;;;;;;;;;;10474289;27;20362;-63
2021/03/11 04:54:59;;;;;;;26.27;18.20;;;;;;;;;;10456929;27;20066;-63
2021/03/11 04:59:57;;;;;;;23.42;17.80;;;;;;;;;;10458308;27;20070;-63
2021/03/11 05:04:54;;;;;;;27.40;18.42;;;;;;;;;;10434792;27;20074;-64
2021/03/11 05:09:53;;;;;;;27.70;20.10;;;;;;;;;;10433633;27;20347;-63
2021/03/11 05:14:50;;;;;;;32.38;21.65;;;;;;;;;;10437804;27;20079;-63
2021/03/11 05:19:47;;;;;;;25.75;17.55;;;;;;;;;;10451632;27;20082;-63
2021/03/11 05:24:45;;;;;;;25.45;19.33;;;;;;;;;;10473292;27;20058;-64
2021/03/11 05:29:49;;;;;;;28.70;19.55;;;;;;;;;;10463359;27;20504;-63
2021/03/11 05:34:48;;;;;;;28.15;19.05;;;;;;;;;;10464121;27;20083;-64
2021/03/11 05:39:46;;;;;;;33.58;21.58;;;;;;;;;;10463336;27;20042;-63
2021/03/11 05:44:43;;;;;;;34.33;19.35;;;;;;;;;;10450270;27;20051;-63
2021/03/11 05:49:42;;;;;;;33.22;21.83;;;;;;;;;;10462161;27;20046;-63
2021/03/11 05:54:40;;;;;;;39.97;28.00;;;;;;;;;;10431985;27;20512;-63
2021/03/11 05:59:37;;;;;;;41.10;28.52;;;;;;;;;;10486221;27;20047;-63
2021/03/11 06:04:35;;;;;;;38.72;26.75;;;;;;;;;;10486308;27;20035;-63
2021/03/11 06:09:33;;;;;;;38.78;27.02;;;;;;;;;;10485732;27;20112;-63
2021/03/11 06:14:35;;;;;;;26.92;19.13;;;;;;;;;;10488852;27;20506;-63
2021/03/11 06:19:33;;;;;;;65.60;44.42;;;;;;;;;;10489484;27;20058;-64
2021/03/11 06:24:30;;;;;;;67.63;57.42;;;;;;;;;;10489036;27;20042;-63
2021/03/11 06:29:44;;;;;;;26.45;20.67;;;;;;;;;;10489196;27;20507;-63
2021/03/11 06:34:43;;;;;;;26.90;18.40;;;;;;;;;;10488612;27;20088;-63
2021/03/11 06:39:41;;;;;;;27.23;19.65;;;;;;;;;;10488553;27;20050;-64
2021/03/11 06:44:40;;;;;;;27.25;18.40;;;;;;;;;;10488807;27;20492;-64
2021/03/11 06:49:55;;;;;;;31.40;20.85;;;;;;;;;;10488379;27;20038;-64
2021/03/11 06:54:54;;;;;;;32.15;21.38;;;;;;;;;;10487185;27;20093;-63
2021/03/11 06:59:52;;;;;;;34.47;21.58;;;;;;;;;;10468935;27;20043;-64
2021/03/11 07:04:50;;;;;;;33.28;22.35;;;;;;;;;;10488047;27;20039;-64
2021/03/11 07:09:49;;;;;;;34.63;22.92;;;;;;;;;;10487428;27;20046;-64
2021/03/11 07:14:50;;;;;;;30.90;21.23;;;;;;;;;;10486665;27;20085;-65
2021/03/11 07:20:07;;;;;;;33.35;22.48;;;;;;;;;;10487465;27;20043;-64
2021/03/11 07:25:24;;;;;;;26.77;19.48;;;;;;;;;;10487338;27;20079;-64
2021/03/11 07:30:24;;;;;;;31.35;21.70;;;;;;;;;;10486884;27;20412;-64
2021/03/11 07:35:26;;;;;;;25.70;17.55;;;;;;;;;;10486630;27;20082;-63
2021/03/11 07:40:25;;;;;;;35.60;23.95;;;;;;;;;;10486030;27;20054;-63
2021/03/11 07:45:23;;;;;;;33.15;20.88;;;;;;;;;;10485538;27;20054;-63
2021/03/11 07:50:20;;;;;;;35.38;24.63;;;;;;;;;;10486202;27;20043;-64
2021/03/11 07:55:18;;;;;;;30.00;19.48;;;;;;;;;;10486071;27;20482;-63
2021/03/11 08:00:17;;;;;;;28.35;20.23;;;;;;;;;;10485489;27;20071;-64
2021/03/11 08:05:23;;;;;;;29.85;19.05;;;;;;;;;;10484610;27;20099;-64
2021/03/11 08:10:21;;;;;;;34.97;24.85;;;;;;;;;;10483353;27;20051;-63
2021/03/11 08:15:32;;;;;;;49.60;30.17;;;;;;;;;;10484454;27;20486;-62
2021/03/11 08:20:40;;;;;;;37.15;30.83;;;;;;;;;;10483861;27;20443;-63
2021/03/11 08:25:46;;;;;;;36.55;21.20;;;;;;;;;;10484481;27;20086;-65
2021/03/11 08:30:52;;;;;;;58.42;29.27;;;;;;;;;;10484744;27;20077;-64
2021/03/11 08:35:49;;;;;;;;;;;;;;;;;;10484339;27;20078;-64
2021/03/11 08:40:53;;;;;;;49.25;34.47;;;;;;;;;;10483360;27;19922;-66
2021/03/11 08:45:54;;;;;;;36.30;26.40;;;;;;;;;;10483191;27;20066;-63
2021/03/11 08:50:52;;;;;;;33.55;25.35;;;;;;;;;;10483508;27;20073;-64
2021/03/11 08:55:49;;;;;;;33.03;25.70;;;;;;;;;;10483772;27;20057;-64
2021/03/11 09:00:54;;;;;;;35.47;25.60;;;;;;;;;;10483232;27;20419;-64
2021/03/11 09:05:52;;;;;;;43.83;27.37;;;;;;;;;;10464801;27;20039;-64
2021/03/11 09:10:50;;;;;;;116.00;59.53;;;;;;;;;;10483211;27;20030;-64
2021/03/11 09:15:47;;;;;;;122.82;53.33;;;;;;;;;;10482483;27;20054;-63
2021/03/11 09:20:51;;;;;;;159.20;81.07;;;;;;;;;;10482264;27;20071;-63
2021/03/11 09:25:49;;;;;;;28.77;22.55;;;;;;;;;;10481816;27;20047;-63
2021/03/11 09:30:46;;;;;;;37.50;26.63;;;;;;;;;;10482347;27;20046;-63
2021/03/11 09:35:44;;;;;;;29.85;22.33;;;;;;;;;;10482095;27;20113;-64
2021/03/11 09:40:43;;;;;;;25.60;18.75;;;;;;;;;;10482290;27;20062;-63
2021/03/11 09:45:42;;;;;;;27.67;21.25;;;;;;;;;;10482208;27;20141;-63
2021/03/11 09:50:48;;;;;;;26.38;19.42;;;;;;;;;;10481806;27;20051;-63
2021/03/11 09:55:46;;;;;;;21.17;17.38;;;;;;;;;;10483524;27;20043;-63
2021/03/11 10:00:44;;;;;;;30.92;19.67;;;;;;;;;;10484093;27;20039;-63
2021/03/11 10:05:42;;;;;;;28.65;19.60;;;;;;;;;;10481441;27;20035;-63
2021/03/11 10:10:39;;;;;;;25.48;20.42;;;;;;;;;;10481509;27;20089;-63
2021/03/11 10:15:46;;;;;;;27.60;19.77;;;;;;;;;;10481709;27;20070;-63
2021/03/11 10:20:43;;;;;;;27.00;18.85;;;;;;;;;;10482212;27;20086;-63
2021/03/11 10:25:41;;;;;;;38.22;27.65;;;;;;;;;;10481166;27;20085;-63
2021/03/11 10:30:40;;;;;;;37.40;23.33;;;;;;;;;;10480774;27;20076;-63
2021/03/11 10:35:39;;;;;;;32.20;23.45;;;;;;;;;;10485013;27;20080;-63
2021/03/11 10:40:36;;;;;;;28.70;18.17;;;;;;;;;;10488170;27;20057;-63
2021/03/11 10:45:38;;;;;;;30.33;21.40;;;;;;;;;;10489003;27;20054;-63
2021/03/11 10:50:37;;;;;;;25.15;18.05;;;;;;;;;;10488309;27;20517;-63
2021/03/11 10:55:37;;;;;;;30.50;21.45;;;;;;;;;;10488253;27;20490;-63
2021/03/11 11:00:36;;;;;;;24.10;15.05;;;;;;;;;;10488400;27;20039;-63
2021/03/11 11:05:33;;;;;;;21.85;16.05;;;;;;;;;;10488421;27;20055;-63
2021/03/11 11:10:32;;;;;;;33.33;24.63;;;;;;;;;;10488085;27;20039;-63
2021/03/11 11:15:31;;;;;;;14.98;11.98;;;;;;;;;;10487689;27;20085;-63
2021/03/11 11:20:30;;;;;;;26.52;20.00;;;;;;;;;;10486471;27;20046;-63
2021/03/11 11:25:28;;;;;;;26.63;18.92;;;;;;;;;;10487281;27;20050;-63
2021/03/11 11:30:26;;;;;;;26.67;19.08;;;;;;;;;;10486817;27;20078;-63
2021/03/11 11:35:25;;;;;;;48.00;31.42;;;;;;;;;;10486119;27;20082;-63
2021/03/11 11:40:22;;;;;;;30.90;16.52;;;;;;;;;;10485989;27;20195;-63
2021/03/11 11:45:19;;;;;;;25.55;15.68;;;;;;;;;;10486362;27;20085;-63
2021/03/11 11:50:17;;;;;;;24.95;15.80;;;;;;;;;;10486093;27;20077;-63
2021/03/11 11:55:15;;;;;;;19.77;14.00;;;;;;;;;;10486519;27;20082;-63
2021/03/11 12:00:14;;;;;;;20.55;13.18;;;;;;;;;;10485313;27;20054;-63
2021/03/11 12:05:12;;;;;;;21.02;14.63;;;;;;;;;;10486044;27;20034;-63
2021/03/11 12:10:10;;;;;;;25.95;19.88;;;;;;;;;;10485591;27;20097;-63
2021/03/11 12:15:09;;;;;;;20.20;16.48;;;;;;;;;;10466480;27;20404;-63
2021/03/11 12:20:07;;;;;;;52.17;20.65;;;;;;;;;;10485072;27;20085;-63
2021/03/11 12:25:05;;;;;;;87.68;49.47;;;;;;;;;;10484890;27;20039;-63
2021/03/11 12:30:03;;;;;;;198.98;94.35;;;;;;;;;;10484914;27;20081;-63
2021/03/11 12:35:10;;;;;;;19.23;12.40;;;;;;;;;;10483370;27;20081;-63
2021/03/11 12:40:08;;;;;;;105.97;43.60;;;;;;;;;;10483713;27;20039;-63
2021/03/11 12:45:06;;;;;;;87.32;40.88;;;;;;;;;;10484176;27;20043;-62
2021/03/11 12:50:04;;;;;;;54.97;29.88;;;;;;;;;;10484054;27;20081;-62
2021/03/11 12:55:02;;;;;;;29.95;18.17;;;;;;;;;;10483673;27;20519;-63
2021/03/11 12:59:59;;;;;;;26.35;16.60;;;;;;;;;;10482607;27;20058;-62
2021/03/11 13:04:57;;;;;;;14.77;11.60;;;;;;;;;;10483873;27;20042;-62
2021/03/11 13:09:54;;;;;;;19.38;14.80;;;;;;;;;;10483767;27;20062;-63
2021/03/11 13:14:52;;;;;;;26.00;19.85;;;;;;;;;;10482928;27;20078;-63
2021/03/11 13:19:50;;;;;;;19.13;16.08;;;;;;;;;;10482767;27;20074;-62
2021/03/11 13:24:47;;;;;;;36.13;27.90;;;;;;;;;;10482918;27;20089;-65
2021/03/11 13:29:45;;;;;;;23.27;17.85;;;;;;;;;;10482686;27;20062;-62
2021/03/11 13:34:43;;;;;;;29.77;20.48;;;;;;;;;;10481931;27;20043;-63
2021/03/11 13:39:41;;;;;;;33.63;24.98;;;;;;;;;;10481807;27;20062;-62
2021/03/11 13:44:38;;;;;;;32.75;21.83;;;;;;;;;;10482177;27;20078;-64
2021/03/11 13:49:35;;;;;;;31.40;23.67;;;;;;;;;;10482195;27;20046;-64
2021/03/11 13:54:33;;;;;;;31.13;23.30;;;;;;;;;;10482182;27;20035;-64
2021/03/11 13:59:31;;;;;;;40.72;25.25;;;;;;;;;;10482177;27;20047;-63
2021/03/11 14:04:29;;;;;;;38.42;25.50;;;;;;;;;;10481929;27;20051;-63
2021/03/11 14:09:35;;;;;;;28.08;19.50;;;;;;;;;;10485145;27;20054;-63
2021/03/11 14:14:33;;;;;;;31.95;25.58;;;;;;;;;;10490213;27;20035;-63
2021/03/11 14:19:30;;;;;;;43.22;28.60;;;;;;;;;;10489334;27;20042;-64
2021/03/11 14:24:28;;;;;;;37.88;27.00;;;;;;;;;;10489446;27;20043;-63
2021/03/11 14:29:26;;;;;;;24.02;17.15;;;;;;;;;;10488830;27;20050;-63
2021/03/11 14:34:23;;;;;;;40.63;26.67;;;;;;;;;;10489129;27;20050;-63
2021/03/11 14:39:22;;;;;;;66.90;40.60;;;;;;;;;;10488383;27;20074;-63
2021/03/11 14:44:19;;;;;;;24.98;18.17;;;;;;;;;;10488911;27;20698;-63
2021/03/11 14:49:17;;;;;;;55.92;37.40;;;;;;;;;;10488679;27;20054;-63
2021/03/11 14:54:15;;;;;;;34.38;27.48;;;;;;;;;;10487570;27;20097;-62
2021/03/11 14:59:12;;;;;;;27.95;20.40;;;;;;;;;;10488801;27;20050;-63
2021/03/11 15:04:09;;;;;;;45.95;28.52;;;;;;;;;;10488580;27;20096;-64
2021/03/11 15:09:10;;;;;;;46.17;31.30;;;;;;;;;;10487952;27;20062;-63
2021/03/11 15:14:07;;;;;;;52.78;32.88;;;;;;;;;;10487851;27;20463;-64
2021/03/11 15:19:04;;;;;;;48.58;29.83;;;;;;;;;;10487839;27;20085;-64
2021/03/11 15:24:02;;;;;;;31.67;22.70;;;;;;;;;;10487675;27;20131;-64
2021/03/11 15:29:00;;;;;;;42.30;28.13;;;;;;;;;;10487664;27;20066;-64
2021/03/11 15:33:57;;;;;;;28.67;22.63;;;;;;;;;;10487130;27;20070;-64
2021/03/11 15:38:55;;;;;;;47.38;33.28;;;;;;;;;;10487909;27;20494;-64
2021/03/11 15:43:52;;;;;;;62.40;38.75;;;;;;;;;;10486983;27;20522;-64
2021/03/11 15:48:50;;;;;;;33.15;24.35;;;;;;;;;;10486839;27;20086;-64
2021/03/11 15:53:47;;;;;;;133.98;73.35;;;;;;;;;;10486415;27;20039;-63
2021/03/11 15:58:45;;;;;;;66.43;40.63;;;;;;;;;;10485091;27;20080;-63
2021/03/11 16:03:42;;;;;;;71.82;43.97;;;;;;;;;;10486457;27;20038;-63
2021/03/11 16:08:40;;;;;;;136.25;74.70;;;;;;;;;;10486266;27;20070;-63
2021/03/11 16:13:38;;;;;;;54.83;35.72;;;;;;;;;;10484834;27;20065;-63
2021/03/11 16:18:35;;;;;;;117.93;67.40;;;;;;;;;;10484283;27;20078;-62
2021/03/11 16:23:33;;;;;;;101.85;60.80;;;;;;;;;;10485338;27;20057;-63
2021/03/11 16:28:31;;;;;;;131.63;79.88;;;;;;;;;;10483759;27;20072;-64
2021/03/11 16:33:28;;;;;;;116.75;66.40;;;;;;;;;;10484299;27;20066;-64
2021/03/11 16:38:26;;;;;;;70.15;46.70;;;;;;;;;;10483711;27;20514;-64
2021/03/11 16:43:23;;;;;;;76.90;51.33;;;;;;;;;;10483356;27;20051;-63
2021/03/11 16:48:21;;;;;;;99.13;57.80;;;;;;;;;;10483936;27;20085;-63
2021/03/11 16:53:19;;;;;;;55.20;35.38;;;;;;;;;;10483174;27;20051;-63
2021/03/11 16:58:17;;;;;;;80.45;51.47;;;;;;;;;;10483362;27;20132;-63
2021/03/11 17:03:15;;;;;;;130.85;74.15;;;;;;;;;;10482368;27;20058;-64
2021/03/11 17:08:13;;;;;;;141.63;87.85;;;;;;;;;;10483129;27;20042;-61
2021/03/11 17:13:10;;;;;;;140.70;84.95;;;;;;;;;;10482642;27;20042;-64
2021/03/11 17:18:09;;;;;;;123.10;73.05;;;;;;;;;;10481761;27;20486;-62
2021/03/11 17:23:07;;;;;;;99.43;59.75;;;;;;;;;;10483146;27;20488;-63
2021/03/11 17:28:05;;;;;;;107.32;64.97;;;;;;;;;;10480870;27;20532;-63
2021/03/11 17:33:02;;;;;;;123.45;76.22;;;;;;;;;;10482331;27;20474;-63
2021/03/11 17:38:00;;;;;;;155.57;88.22;;;;;;;;;;10483143;27;20081;-63
2021/03/11 17:42:57;;;;;;;138.82;84.43;;;;;;;;;;10482634;27;20082;-63
2021/03/11 17:48:09;;;;;;;127.93;82.75;;;;;;;;;;10483154;27;20046;-63
2021/03/11 17:53:06;;;;;;;96.10;63.38;;;;;;;;;;10465678;27;20074;-63
2021/03/11 17:58:04;;;;;;;128.45;84.45;;;;;;;;;;10453039;27;20062;-63
2021/03/11 18:03:01;;;;;;;102.68;71.32;;;;;;;;;;10461154;27;20089;-64
2021/03/11 18:08:11;;;;;;;98.88;68.50;;;;;;;;;;10461313;27;20050;-64
2021/03/11 18:13:09;;;;;;;138.57;91.15;;;;;;;;;;10461626;27;20123;-63
2021/03/11 18:18:07;;;;;;;95.88;66.47;;;;;;;;;;10446464;27;20054;-63
2021/03/11 18:23:05;;;;;;;50.90;34.05;;;;;;;;;;10438678;28;20062;-61
2021/03/11 18:28:03;;;;;;;42.53;31.92;;;;;;;;;;10442628;27;20063;-62
2021/03/11 18:33:01;;;;;;;30.20;21.35;;;;;;;;;;10463322;27;20070;-61
2021/03/11 18:37:59;;;;;;;51.92;34.00;;;;;;;;;;10480288;27;20111;-63
2021/03/11 18:42:56;;;;;;;60.92;40.78;;;;;;;;;;10480793;27;20502;-62
2021/03/11 18:47:55;;;;;;;124.45;57.45;;;;;;;;;;10480073;27;20054;-63
2021/03/11 18:52:52;;;;;;;88.53;44.08;;;;;;;;;;10468470;27;20067;-63
2021/03/11 18:57:50;;;;;;;202.73;95.85;;;;;;;;;;10448348;27;20074;-63
2021/03/11 19:02:47;;;;;;;246.50;111.50;;;;;;;;;;10487417;27;20050;-63
2021/03/11 19:07:46;;;;;;;141.23;62.90;;;;;;;;;;10487541;27;20047;-63
2021/03/11 19:12:44;;;;;;;250.88;104.38;;;;;;;;;;10487299;27;20051;-63
2021/03/11 19:17:44;;;;;;;124.32;61.95;;;;;;;;;;10462926;27;20091;-62
2021/03/11 19:22:43;;;;;;;213.30;97.75;;;;;;;;;;10486543;27;20047;-64
2021/03/11 19:27:42;;;;;;;244.30;102.82;;;;;;;;;;10456688;27;20055;-63
2021/03/11 19:32:39;;;;;;;368.10;144.18;;;;;;;;;;10444904;27;20405;-63
2021/03/11 19:37:36;;;;;;;265.38;111.78;;;;;;;;;;10444123;27;20538;-63
2021/03/11 19:42:37;;;;;;;708.35;314.45;;;;;;;;;;10443515;27;20504;-63
2021/03/11 19:47:35;;;;;;;283.83;117.65;;;;;;;;;;10444731;27;20328;-63
2021/03/11 19:52:33;;;;;;;438.88;191.15;;;;;;;;;;10444637;27;20073;-63
2021/03/11 19:57:31;;;;;;;339.02;172.98;;;;;;;;;;10464844;27;20070;-63
2021/03/11 20:02:28;;;;;;;195.13;109.10;;;;;;;;;;10456893;27;20063;-63
2021/03/11 20:07:27;;;;;;;277.88;126.13;;;;;;;;;;10444885;27;20062;-63
2021/03/11 20:12:24;;;;;;;212.07;108.78;;;;;;;;;;10459408;27;20066;-63
2021/03/11 20:17:21;;;;;;;170.05;97.90;;;;;;;;;;10481954;27;20523;-63
2021/03/11 20:22:19;;;;;;;130.10;78.03;;;;;;;;;;10481377;27;20101;-63
2021/03/11 20:27:17;;;;;;;107.72;63.47;;;;;;;;;;10483367;27;20471;-63
2021/03/11 20:32:14;;;;;;;79.13;46.33;;;;;;;;;;10480079;27;20132;-63
2021/03/11 20:37:12;;;;;;;83.18;48.33;;;;;;;;;;10483499;27;20093;-64
2021/03/11 20:42:09;;;;;;;57.75;33.80;;;;;;;;;;10485110;27;20055;-64
2021/03/11 20:47:08;;;;;;;40.60;26.67;;;;;;;;;;10485076;27;20042;-63
2021/03/11 20:52:07;;;;;;;51.88;31.20;;;;;;;;;;10483750;27;20123;-64
2021/03/11 20:57:04;;;;;;;129.77;75.95;;;;;;;;;;10484592;27;20082;-64
2021/03/11 21:02:01;;;;;;;104.53;58.33;;;;;;;;;;10483339;27;20074;-62
2021/03/11 21:07:00;;;;;;;67.47;40.72;;;;;;;;;;10483945;27;20035;-62
2021/03/11 21:11:59;;;;;;;66.63;39.85;;;;;;;;;;10480014;27;20623;-62
2021/03/11 21:16:56;;;;;;;42.00;27.10;;;;;;;;;;10458564;27;20467;-63
2021/03/11 21:21:54;;;;;;;28.90;19.38;;;;;;;;;;10461560;27;20479;-63
2021/03/11 21:26:52;;;;;;;61.25;33.08;;;;;;;;;;10482748;27;20046;-63
2021/03/11 21:31:49;;;;;;;88.38;41.45;;;;;;;;;;10453412;27;20058;-63
2021/03/11 21:36:47;;;;;;;100.07;40.05;;;;;;;;;;10422171;27;20082;-64
2021/03/11 21:41:44;;;;;;;59.55;31.13;;;;;;;;;;10439440;27;20062;-64
2021/03/11 21:46:42;;;;;;;61.20;26.35;;;;;;;;;;10440996;28;20043;-64
2021/03/11 21:51:40;;;;;;;50.15;27.02;;;;;;;;;;10439926;28;20070;-63
2021/03/11 21:56:38;;;;;;;23.33;16.50;;;;;;;;;;10438510;28;20089;-63
2021/03/11 22:01:35;;;;;;;23.83;15.77;;;;;;;;;;10440409;27;20069;-64
2021/03/11 22:06:34;;;;;;;31.17;18.05;;;;;;;;;;10447012;27;20074;-62
2021/03/11 22:11:31;;;;;;;51.28;26.60;;;;;;;;;;10466449;27;20147;-61
2021/03/11 22:16:48;;;;;;;53.75;30.10;;;;;;;;;;10450459;27;20087;-62
2021/03/11 22:21:49;;;;;;;38.25;24.83;;;;;;;;;;10446641;27;20067;-64
2021/03/11 22:26:46;;;;;;;27.85;17.38;;;;;;;;;;10478149;27;20089;-63
2021/03/11 22:31:43;;;;;;;53.33;26.60;;;;;;;;;;10486199;27;20412;-63
2021/03/11 22:36:41;;;;;;;37.22;20.58;;;;;;;;;;10489560;27;20475;-64
2021/03/11 22:41:39;;;;;;;139.13;57.85;;;;;;;;;;10489724;27;20055;-64
2021/03/11 22:46:36;;;;;;;88.40;37.72;;;;;;;;;;10488945;27;20070;-61
2021/03/11 22:51:36;;;;;;;153.32;66.03;;;;;;;;;;10489783;27;20071;-64
2021/03/11 22:56:33;;;;;;;93.65;44.13;;;;;;;;;;10489213;27;20066;-64
2021/03/11 23:01:32;;;;;;;81.80;41.00;;;;;;;;;;10488106;27;20066;-63
2021/03/11 23:06:29;;;;;;;41.45;22.48;;;;;;;;;;10488310;27;20505;-63
2021/03/11 23:11:26;;;;;;;30.20;19.52;;;;;;;;;;10487555;27;20077;-63
2021/03/11 23:16:24;;;;;;;21.63;15.00;;;;;;;;;;10486888;27;20047;-63
2021/03/11 23:21:23;;;;;;;20.90;14.15;;;;;;;;;;10487756;27;20077;-62
2021/03/11 23:26:20;;;;;;;22.58;14.98;;;;;;;;;;10467089;27;20518;-63
2021/03/11 23:31:17;;;;;;;19.45;14.43;;;;;;;;;;10452204;27;20581;-63
2021/03/11 23:36:15;;;;;;;18.35;14.32;;;;;;;;;;10445717;27;20046;-63
2021/03/11 23:41:13;;;;;;;23.08;15.30;;;;;;;;;;10450395;27;20074;-63
2021/03/11 23:46:10;;;;;;;23.50;16.15;;;;;;;;;;10482470;27;20039;-63
2021/03/11 23:51:07;;;;;;;22.90;16.23;;;;;;;;;;10486399;27;20047;-63
2021/03/11 23:56:05;;;;;;;25.35;16.13;;;;;;;;;;10486940;27;20047;-63
